sensor_id;sensor_type;location;lat;lon;timestamp;P1;durP1;ratioP1;P2;durP2;ratioP2
70829;SDS011;58451;51.550;7.208;2022-10-22T00:00:52;7.30;;;2.10;;
70829;SDS011;58451;51.550;7.208;2022-10-22T00:02:24;10.60;;;2.40;;
70829;SDS011;58451;51.550;7.208;2022-10-22T00:03:59;6.40;;;2.30;;
70829;SDS011;58451;51.550;7.208;2022-10-22T00:05:31;7.10;;;2.50;;
70829;SDS011;58451;51.550;7.208;2022-10-22T00:07:03;6.20;;;2.30;;
70829;SDS011;58451;51.550;7.208;2022-10-22T00:08:34;6.30;;;2.10;;
70829;SDS011;58451;51.550;7.208;2022-10-22T00:10:07;10.80;;;2.30;;
70829;SDS011;58451;51.550;7.208;2022-10-22T00:11:39;6.50;;;2.00;;
70829;SDS011;58451;51.550;7.208;2022-10-22T00:13:12;7.20;;;1.90;;
70829;SDS011;58451;51.550;7.208;2022-10-22T00:14:45;7.50;;;2.10;;
70829;SDS011;58451;51.550;7.208;2022-10-22T00:16:17;6.40;;;2.30;;
70829;SDS011;58451;51.550;7.208;2022-10-22T00:17:49;10.20;;;2.50;;
70829;SDS011;58451;51.550;7.208;2022-10-22T00:19:22;6.70;;;2.00;;
70829;SDS011;58451;51.550;7.208;2022-10-22T00:20:53;6.30;;;2.00;;
70829;SDS011;58451;51.550;7.208;2022-10-22T00:22:25;7.40;;;2.20;;
70829;SDS011;58451;51.550;7.208;2022-10-22T00:23:57;6.20;;;1.90;;
70829;SDS011;58451;51.550;7.208;2022-10-22T00:25:29;6.00;;;2.10;;
70829;SDS011;58451;51.550;7.208;2022-10-22T00:27:02;6.00;;;1.90;;
70829;SDS011;58451;51.550;7.208;2022-10-22T00:28:34;7.10;;;2.20;;
70829;SDS011;58451;51.550;7.208;2022-10-22T00:30:07;6.00;;;1.80;;
70829;SDS011;58451;51.550;7.208;2022-10-22T00:31:39;6.30;;;1.90;;
70829;SDS011;58451;51.550;7.208;2022-10-22T00:33:10;4.50;;;1.80;;
70829;SDS011;58451;51.550;7.208;2022-10-22T00:34:42;4.80;;;1.70;;
70829;SDS011;58451;51.550;7.208;2022-10-22T00:36:15;6.60;;;2.20;;
70829;SDS011;58451;51.550;7.208;2022-10-22T00:37:47;8.10;;;1.80;;
70829;SDS011;58451;51.550;7.208;2022-10-22T00:39:20;5.60;;;2.20;;
70829;SDS011;58451;51.550;7.208;2022-10-22T00:40:54;6.50;;;2.40;;
70829;SDS011;58451;51.550;7.208;2022-10-22T00:42:27;5.50;;;1.90;;
70829;SDS011;58451;51.550;7.208;2022-10-22T00:44:04;5.00;;;1.70;;
70829;SDS011;58451;51.550;7.208;2022-10-22T00:45:36;5.00;;;1.70;;
70829;SDS011;58451;51.550;7.208;2022-10-22T00:47:08;5.60;;;1.90;;
70829;SDS011;58451;51.550;7.208;2022-10-22T00:48:40;8.20;;;2.20;;
70829;SDS011;58451;51.550;7.208;2022-10-22T00:50:42;6.50;;;1.90;;
70829;SDS011;58451;51.550;7.208;2022-10-22T00:52:18;6.80;;;2.00;;
70829;SDS011;58451;51.550;7.208;2022-10-22T00:53:54;6.60;;;2.10;;
70829;SDS011;58451;51.550;7.208;2022-10-22T00:55:28;4.80;;;1.70;;
70829;SDS011;58451;51.550;7.208;2022-10-22T00:57:03;5.70;;;1.70;;
70829;SDS011;58451;51.550;7.208;2022-10-22T00:58:38;5.70;;;1.70;;
70829;SDS011;58451;51.550;7.208;2022-10-22T01:00:15;5.90;;;1.80;;
70829;SDS011;58451;51.550;7.208;2022-10-22T01:01:47;6.70;;;2.00;;
70829;SDS011;58451;51.550;7.208;2022-10-22T01:03:20;6.30;;;1.80;;
70829;SDS011;58451;51.550;7.208;2022-10-22T01:04:52;5.30;;;2.00;;
70829;SDS011;58451;51.550;7.208;2022-10-22T01:06:30;7.30;;;2.00;;
70829;SDS011;58451;51.550;7.208;2022-10-22T01:08:04;7.10;;;2.00;;
70829;SDS011;58451;51.550;7.208;2022-10-22T01:10:02;8.30;;;2.40;;
70829;SDS011;58451;51.550;7.208;2022-10-22T01:16:20;8.40;;;2.20;;
70829;SDS011;58451;51.550;7.208;2022-10-22T01:18:08;6.10;;;2.10;;
70829;SDS011;58451;51.550;7.208;2022-10-22T01:24:36;6.40;;;1.70;;
70829;SDS011;58451;51.550;7.208;2022-10-22T01:30:30;9.20;;;2.40;;
70829;SDS011;58451;51.550;7.208;2022-10-22T01:32:09;6.30;;;2.20;;
70829;SDS011;58451;51.550;7.208;2022-10-22T01:33:45;7.30;;;2.30;;
70829;SDS011;58451;51.550;7.208;2022-10-22T01:35:33;6.50;;;2.40;;
70829;SDS011;58451;51.550;7.208;2022-10-22T01:37:12;7.60;;;2.90;;
70829;SDS011;58451;51.550;7.208;2022-10-22T01:38:46;6.30;;;2.40;;
70829;SDS011;58451;51.550;7.208;2022-10-22T01:40:20;6.50;;;2.40;;
70829;SDS011;58451;51.550;7.208;2022-10-22T01:41:55;6.70;;;2.30;;
70829;SDS011;58451;51.550;7.208;2022-10-22T01:43:27;7.50;;;2.50;;
70829;SDS011;58451;51.550;7.208;2022-10-22T01:44:59;6.90;;;2.20;;
70829;SDS011;58451;51.550;7.208;2022-10-22T01:46:31;7.50;;;2.10;;
70829;SDS011;58451;51.550;7.208;2022-10-22T01:48:41;7.40;;;2.30;;
70829;SDS011;58451;51.550;7.208;2022-10-22T02:00:20;8.50;;;1.90;;
70829;SDS011;58451;51.550;7.208;2022-10-22T02:02:16;7.40;;;1.90;;
70829;SDS011;58451;51.550;7.208;2022-10-22T02:04:22;6.70;;;1.90;;
70829;SDS011;58451;51.550;7.208;2022-10-22T02:06:03;6.70;;;2.40;;
70829;SDS011;58451;51.550;7.208;2022-10-22T02:07:47;7.00;;;2.30;;
70829;SDS011;58451;51.550;7.208;2022-10-22T02:09:24;7.90;;;2.70;;
70829;SDS011;58451;51.550;7.208;2022-10-22T02:10:59;7.60;;;2.50;;
70829;SDS011;58451;51.550;7.208;2022-10-22T02:12:32;7.60;;;2.40;;
70829;SDS011;58451;51.550;7.208;2022-10-22T02:14:06;8.30;;;2.60;;
70829;SDS011;58451;51.550;7.208;2022-10-22T02:15:38;7.00;;;2.00;;
70829;SDS011;58451;51.550;7.208;2022-10-22T02:17:16;7.00;;;3.00;;
70829;SDS011;58451;51.550;7.208;2022-10-22T02:18:53;6.30;;;2.40;;
70829;SDS011;58451;51.550;7.208;2022-10-22T02:20:32;7.30;;;2.50;;
70829;SDS011;58451;51.550;7.208;2022-10-22T02:22:07;8.50;;;2.40;;
70829;SDS011;58451;51.550;7.208;2022-10-22T02:23:39;7.70;;;2.80;;
70829;SDS011;58451;51.550;7.208;2022-10-22T02:25:11;8.20;;;2.30;;
70829;SDS011;58451;51.550;7.208;2022-10-22T02:28:39;6.40;;;2.30;;
70829;SDS011;58451;51.550;7.208;2022-10-22T02:30:20;7.40;;;2.30;;
70829;SDS011;58451;51.550;7.208;2022-10-22T02:31:55;6.50;;;2.50;;
70829;SDS011;58451;51.550;7.208;2022-10-22T02:33:32;7.50;;;2.60;;
70829;SDS011;58451;51.550;7.208;2022-10-22T02:35:10;6.90;;;2.40;;
70829;SDS011;58451;51.550;7.208;2022-10-22T02:36:46;6.50;;;2.60;;
70829;SDS011;58451;51.550;7.208;2022-10-22T02:38:24;7.40;;;2.50;;
70829;SDS011;58451;51.550;7.208;2022-10-22T02:39:57;12.30;;;2.60;;
70829;SDS011;58451;51.550;7.208;2022-10-22T02:41:30;7.00;;;2.40;;
70829;SDS011;58451;51.550;7.208;2022-10-22T02:43:05;9.10;;;2.60;;
70829;SDS011;58451;51.550;7.208;2022-10-22T02:44:37;9.30;;;2.90;;
70829;SDS011;58451;51.550;7.208;2022-10-22T02:46:10;7.40;;;2.60;;
70829;SDS011;58451;51.550;7.208;2022-10-22T02:47:42;7.30;;;2.60;;
70829;SDS011;58451;51.550;7.208;2022-10-22T02:49:14;10.00;;;3.10;;
70829;SDS011;58451;51.550;7.208;2022-10-22T02:50:46;10.90;;;2.90;;
70829;SDS011;58451;51.550;7.208;2022-10-22T02:52:18;8.60;;;2.70;;
70829;SDS011;58451;51.550;7.208;2022-10-22T02:53:50;9.20;;;3.10;;
70829;SDS011;58451;51.550;7.208;2022-10-22T02:55:22;9.90;;;2.80;;
70829;SDS011;58451;51.550;7.208;2022-10-22T02:56:53;9.40;;;2.40;;
70829;SDS011;58451;51.550;7.208;2022-10-22T02:58:25;6.60;;;2.70;;
70829;SDS011;58451;51.550;7.208;2022-10-22T02:59:57;8.50;;;2.80;;
70829;SDS011;58451;51.550;7.208;2022-10-22T03:01:29;7.90;;;2.90;;
70829;SDS011;58451;51.550;7.208;2022-10-22T03:03:00;8.50;;;2.60;;
70829;SDS011;58451;51.550;7.208;2022-10-22T03:04:32;6.60;;;2.40;;
70829;SDS011;58451;51.550;7.208;2022-10-22T03:06:04;9.40;;;3.20;;
70829;SDS011;58451;51.550;7.208;2022-10-22T03:07:36;10.30;;;2.90;;
70829;SDS011;58451;51.550;7.208;2022-10-22T03:09:09;8.80;;;2.70;;
70829;SDS011;58451;51.550;7.208;2022-10-22T03:10:41;8.70;;;2.70;;
70829;SDS011;58451;51.550;7.208;2022-10-22T03:12:13;8.10;;;2.70;;
70829;SDS011;58451;51.550;7.208;2022-10-22T03:13:45;7.80;;;2.80;;
70829;SDS011;58451;51.550;7.208;2022-10-22T03:15:17;11.40;;;3.00;;
70829;SDS011;58451;51.550;7.208;2022-10-22T03:16:49;8.80;;;2.90;;
70829;SDS011;58451;51.550;7.208;2022-10-22T03:18:20;8.10;;;2.80;;
70829;SDS011;58451;51.550;7.208;2022-10-22T03:21:38;9.30;;;2.90;;
70829;SDS011;58451;51.550;7.208;2022-10-22T03:23:17;8.30;;;2.90;;
70829;SDS011;58451;51.550;7.208;2022-10-22T03:24:53;8.90;;;3.40;;
70829;SDS011;58451;51.550;7.208;2022-10-22T03:26:28;7.20;;;2.50;;
70829;SDS011;58451;51.550;7.208;2022-10-22T03:28:03;6.60;;;2.80;;
70829;SDS011;58451;51.550;7.208;2022-10-22T03:29:41;9.00;;;3.20;;
70829;SDS011;58451;51.550;7.208;2022-10-22T03:31:13;8.70;;;3.10;;
70829;SDS011;58451;51.550;7.208;2022-10-22T03:32:45;7.60;;;2.90;;
70829;SDS011;58451;51.550;7.208;2022-10-22T03:34:17;8.70;;;3.60;;
70829;SDS011;58451;51.550;7.208;2022-10-22T03:35:48;9.30;;;3.50;;
70829;SDS011;58451;51.550;7.208;2022-10-22T03:37:21;11.10;;;3.20;;
70829;SDS011;58451;51.550;7.208;2022-10-22T03:38:54;8.70;;;3.30;;
70829;SDS011;58451;51.550;7.208;2022-10-22T03:40:26;9.60;;;2.80;;
70829;SDS011;58451;51.550;7.208;2022-10-22T03:41:59;8.90;;;3.30;;
70829;SDS011;58451;51.550;7.208;2022-10-22T03:43:36;7.90;;;2.90;;
70829;SDS011;58451;51.550;7.208;2022-10-22T03:45:09;7.60;;;3.20;;
70829;SDS011;58451;51.550;7.208;2022-10-22T03:46:42;8.40;;;2.90;;
70829;SDS011;58451;51.550;7.208;2022-10-22T03:48:14;7.20;;;3.00;;
70829;SDS011;58451;51.550;7.208;2022-10-22T03:49:46;7.00;;;2.70;;
70829;SDS011;58451;51.550;7.208;2022-10-22T03:51:17;6.80;;;3.00;;
70829;SDS011;58451;51.550;7.208;2022-10-22T03:52:49;7.90;;;3.10;;
70829;SDS011;58451;51.550;7.208;2022-10-22T03:54:21;7.90;;;3.30;;
70829;SDS011;58451;51.550;7.208;2022-10-22T03:55:53;8.10;;;2.80;;
70829;SDS011;58451;51.550;7.208;2022-10-22T03:57:24;8.90;;;2.60;;
70829;SDS011;58451;51.550;7.208;2022-10-22T03:58:58;9.40;;;2.60;;
70829;SDS011;58451;51.550;7.208;2022-10-22T04:00:31;10.00;;;2.70;;
70829;SDS011;58451;51.550;7.208;2022-10-22T04:02:04;12.60;;;3.00;;
70829;SDS011;58451;51.550;7.208;2022-10-22T04:03:36;10.70;;;3.00;;
70829;SDS011;58451;51.550;7.208;2022-10-22T04:05:08;7.90;;;2.70;;
70829;SDS011;58451;51.550;7.208;2022-10-22T04:06:40;7.00;;;2.90;;
70829;SDS011;58451;51.550;7.208;2022-10-22T04:08:12;6.60;;;3.00;;
70829;SDS011;58451;51.550;7.208;2022-10-22T04:09:44;7.80;;;2.90;;
70829;SDS011;58451;51.550;7.208;2022-10-22T04:11:16;7.50;;;2.90;;
70829;SDS011;58451;51.550;7.208;2022-10-22T04:12:50;7.90;;;2.70;;
70829;SDS011;58451;51.550;7.208;2022-10-22T04:14:22;9.10;;;3.00;;
70829;SDS011;58451;51.550;7.208;2022-10-22T04:15:54;7.80;;;2.90;;
70829;SDS011;58451;51.550;7.208;2022-10-22T04:17:31;8.20;;;3.00;;
70829;SDS011;58451;51.550;7.208;2022-10-22T04:19:04;9.40;;;6.10;;
70829;SDS011;58451;51.550;7.208;2022-10-22T04:20:36;6.10;;;2.80;;
70829;SDS011;58451;51.550;7.208;2022-10-22T04:22:08;11.20;;;3.20;;
70829;SDS011;58451;51.550;7.208;2022-10-22T04:23:48;10.40;;;3.40;;
70829;SDS011;58451;51.550;7.208;2022-10-22T04:25:22;9.60;;;3.80;;
70829;SDS011;58451;51.550;7.208;2022-10-22T04:26:54;8.80;;;3.00;;
70829;SDS011;58451;51.550;7.208;2022-10-22T04:28:26;10.80;;;3.60;;
70829;SDS011;58451;51.550;7.208;2022-10-22T04:29:59;12.80;;;3.40;;
70829;SDS011;58451;51.550;7.208;2022-10-22T04:31:31;9.10;;;3.70;;
70829;SDS011;58451;51.550;7.208;2022-10-22T04:33:03;8.60;;;4.00;;
70829;SDS011;58451;51.550;7.208;2022-10-22T04:34:34;9.00;;;3.50;;
70829;SDS011;58451;51.550;7.208;2022-10-22T04:36:08;11.40;;;3.00;;
70829;SDS011;58451;51.550;7.208;2022-10-22T04:37:42;9.00;;;3.60;;
70829;SDS011;58451;51.550;7.208;2022-10-22T04:39:14;7.00;;;3.10;;
70829;SDS011;58451;51.550;7.208;2022-10-22T04:40:46;9.70;;;3.30;;
70829;SDS011;58451;51.550;7.208;2022-10-22T04:42:17;14.30;;;3.40;;
70829;SDS011;58451;51.550;7.208;2022-10-22T04:43:49;7.20;;;3.40;;
70829;SDS011;58451;51.550;7.208;2022-10-22T04:45:21;12.60;;;3.30;;
70829;SDS011;58451;51.550;7.208;2022-10-22T04:49:08;10.20;;;3.60;;
70829;SDS011;58451;51.550;7.208;2022-10-22T04:50:40;9.00;;;3.60;;
70829;SDS011;58451;51.550;7.208;2022-10-22T04:52:13;9.10;;;3.30;;
70829;SDS011;58451;51.550;7.208;2022-10-22T04:53:45;10.50;;;3.50;;
70829;SDS011;58451;51.550;7.208;2022-10-22T04:55:17;8.00;;;3.20;;
70829;SDS011;58451;51.550;7.208;2022-10-22T04:56:49;9.30;;;3.40;;
70829;SDS011;58451;51.550;7.208;2022-10-22T04:58:21;17.00;;;3.90;;
70829;SDS011;58451;51.550;7.208;2022-10-22T04:59:53;8.10;;;3.20;;
70829;SDS011;58451;51.550;7.208;2022-10-22T05:01:27;9.80;;;3.30;;
70829;SDS011;58451;51.550;7.208;2022-10-22T05:03:01;8.60;;;3.40;;
70829;SDS011;58451;51.550;7.208;2022-10-22T05:04:32;9.20;;;3.40;;
70829;SDS011;58451;51.550;7.208;2022-10-22T05:06:05;11.50;;;3.60;;
70829;SDS011;58451;51.550;7.208;2022-10-22T05:07:38;8.20;;;3.00;;
70829;SDS011;58451;51.550;7.208;2022-10-22T05:09:14;8.90;;;3.50;;
70829;SDS011;58451;51.550;7.208;2022-10-22T05:10:48;11.00;;;3.90;;
70829;SDS011;58451;51.550;7.208;2022-10-22T05:12:20;9.70;;;4.00;;
70829;SDS011;58451;51.550;7.208;2022-10-22T05:13:52;9.70;;;4.10;;
70829;SDS011;58451;51.550;7.208;2022-10-22T05:15:24;8.90;;;3.50;;
70829;SDS011;58451;51.550;7.208;2022-10-22T05:16:57;9.30;;;3.50;;
70829;SDS011;58451;51.550;7.208;2022-10-22T05:18:29;10.00;;;3.90;;
70829;SDS011;58451;51.550;7.208;2022-10-22T05:20:01;9.70;;;4.00;;
70829;SDS011;58451;51.550;7.208;2022-10-22T05:21:33;9.90;;;3.70;;
70829;SDS011;58451;51.550;7.208;2022-10-22T05:23:05;11.60;;;3.90;;
70829;SDS011;58451;51.550;7.208;2022-10-22T05:24:37;10.10;;;3.70;;
70829;SDS011;58451;51.550;7.208;2022-10-22T05:26:11;9.30;;;3.50;;
70829;SDS011;58451;51.550;7.208;2022-10-22T05:27:48;10.00;;;3.60;;
70829;SDS011;58451;51.550;7.208;2022-10-22T05:29:21;9.50;;;3.70;;
70829;SDS011;58451;51.550;7.208;2022-10-22T05:30:55;9.10;;;3.60;;
70829;SDS011;58451;51.550;7.208;2022-10-22T05:32:28;11.00;;;3.40;;
70829;SDS011;58451;51.550;7.208;2022-10-22T05:33:59;10.70;;;3.90;;
70829;SDS011;58451;51.550;7.208;2022-10-22T05:35:31;9.70;;;3.50;;
70829;SDS011;58451;51.550;7.208;2022-10-22T05:37:03;12.30;;;4.00;;
70829;SDS011;58451;51.550;7.208;2022-10-22T05:38:35;10.20;;;3.90;;
70829;SDS011;58451;51.550;7.208;2022-10-22T05:40:07;15.40;;;4.40;;
70829;SDS011;58451;51.550;7.208;2022-10-22T05:41:57;26.00;;;4.30;;
70829;SDS011;58451;51.550;7.208;2022-10-22T05:43:29;12.10;;;4.10;;
70829;SDS011;58451;51.550;7.208;2022-10-22T05:45:01;12.70;;;4.40;;
70829;SDS011;58451;51.550;7.208;2022-10-22T05:46:35;13.80;;;4.50;;
70829;SDS011;58451;51.550;7.208;2022-10-22T05:48:08;12.50;;;5.00;;
70829;SDS011;58451;51.550;7.208;2022-10-22T05:49:40;12.10;;;4.60;;
70829;SDS011;58451;51.550;7.208;2022-10-22T05:51:12;12.10;;;4.50;;
70829;SDS011;58451;51.550;7.208;2022-10-22T05:52:44;14.90;;;5.10;;
70829;SDS011;58451;51.550;7.208;2022-10-22T05:54:18;15.70;;;4.90;;
70829;SDS011;58451;51.550;7.208;2022-10-22T05:55:51;17.20;;;5.10;;
70829;SDS011;58451;51.550;7.208;2022-10-22T05:57:23;13.80;;;5.00;;
70829;SDS011;58451;51.550;7.208;2022-10-22T05:58:55;15.90;;;4.90;;
70829;SDS011;58451;51.550;7.208;2022-10-22T06:00:27;13.80;;;5.00;;
70829;SDS011;58451;51.550;7.208;2022-10-22T06:01:59;12.20;;;5.20;;
70829;SDS011;58451;51.550;7.208;2022-10-22T06:03:31;13.60;;;5.00;;
70829;SDS011;58451;51.550;7.208;2022-10-22T06:05:03;16.40;;;5.50;;
70829;SDS011;58451;51.550;7.208;2022-10-22T06:06:43;14.00;;;5.50;;
70829;SDS011;58451;51.550;7.208;2022-10-22T06:08:16;14.90;;;5.50;;
70829;SDS011;58451;51.550;7.208;2022-10-22T06:09:49;17.30;;;6.30;;
70829;SDS011;58451;51.550;7.208;2022-10-22T06:11:23;15.80;;;5.60;;
70829;SDS011;58451;51.550;7.208;2022-10-22T06:12:55;17.60;;;6.30;;
70829;SDS011;58451;51.550;7.208;2022-10-22T06:14:27;17.10;;;5.20;;
70829;SDS011;58451;51.550;7.208;2022-10-22T06:15:59;15.00;;;5.80;;
70829;SDS011;58451;51.550;7.208;2022-10-22T06:17:31;13.80;;;5.40;;
70829;SDS011;58451;51.550;7.208;2022-10-22T06:19:03;15.80;;;5.90;;
70829;SDS011;58451;51.550;7.208;2022-10-22T06:20:35;18.30;;;7.00;;
70829;SDS011;58451;51.550;7.208;2022-10-22T06:22:07;15.30;;;5.50;;
70829;SDS011;58451;51.550;7.208;2022-10-22T06:23:40;15.50;;;5.90;;
70829;SDS011;58451;51.550;7.208;2022-10-22T06:25:12;14.70;;;5.30;;
70829;SDS011;58451;51.550;7.208;2022-10-22T06:26:44;15.80;;;6.10;;
70829;SDS011;58451;51.550;7.208;2022-10-22T06:28:20;15.20;;;5.70;;
70829;SDS011;58451;51.550;7.208;2022-10-22T06:29:52;12.90;;;5.30;;
70829;SDS011;58451;51.550;7.208;2022-10-22T06:31:24;13.10;;;5.60;;
70829;SDS011;58451;51.550;7.208;2022-10-22T06:32:57;16.10;;;6.00;;
70829;SDS011;58451;51.550;7.208;2022-10-22T06:34:29;14.40;;;5.50;;
70829;SDS011;58451;51.550;7.208;2022-10-22T06:36:09;13.60;;;5.50;;
70829;SDS011;58451;51.550;7.208;2022-10-22T06:37:42;15.00;;;6.00;;
70829;SDS011;58451;51.550;7.208;2022-10-22T06:39:16;12.20;;;4.70;;
70829;SDS011;58451;51.550;7.208;2022-10-22T06:40:48;15.10;;;5.30;;
70829;SDS011;58451;51.550;7.208;2022-10-22T06:42:20;15.80;;;4.80;;
70829;SDS011;58451;51.550;7.208;2022-10-22T06:43:53;13.90;;;5.00;;
70829;SDS011;58451;51.550;7.208;2022-10-22T06:45:26;11.80;;;4.70;;
70829;SDS011;58451;51.550;7.208;2022-10-22T06:46:58;13.10;;;5.50;;
70829;SDS011;58451;51.550;7.208;2022-10-22T06:48:29;13.20;;;4.80;;
70829;SDS011;58451;51.550;7.208;2022-10-22T06:50:01;12.00;;;5.00;;
70829;SDS011;58451;51.550;7.208;2022-10-22T06:51:33;13.00;;;4.60;;
70829;SDS011;58451;51.550;7.208;2022-10-22T06:53:05;14.00;;;5.00;;
70829;SDS011;58451;51.550;7.208;2022-10-22T06:54:37;12.90;;;4.80;;
70829;SDS011;58451;51.550;7.208;2022-10-22T06:56:14;13.00;;;5.00;;
70829;SDS011;58451;51.550;7.208;2022-10-22T06:57:48;12.40;;;5.20;;
70829;SDS011;58451;51.550;7.208;2022-10-22T06:59:19;12.70;;;5.10;;
70829;SDS011;58451;51.550;7.208;2022-10-22T07:01:00;12.10;;;4.50;;
70829;SDS011;58451;51.550;7.208;2022-10-22T07:02:37;10.80;;;4.60;;
70829;SDS011;58451;51.550;7.208;2022-10-22T07:04:09;11.70;;;4.30;;
70829;SDS011;58451;51.550;7.208;2022-10-22T07:05:41;10.20;;;3.90;;
70829;SDS011;58451;51.550;7.208;2022-10-22T07:07:13;11.60;;;4.00;;
70829;SDS011;58451;51.550;7.208;2022-10-22T07:08:45;13.30;;;4.40;;
70829;SDS011;58451;51.550;7.208;2022-10-22T07:10:17;11.20;;;4.80;;
70829;SDS011;58451;51.550;7.208;2022-10-22T07:11:49;9.40;;;3.70;;
70829;SDS011;58451;51.550;7.208;2022-10-22T07:13:21;12.40;;;4.40;;
70829;SDS011;58451;51.550;7.208;2022-10-22T07:14:54;11.60;;;4.60;;
70829;SDS011;58451;51.550;7.208;2022-10-22T07:16:26;12.10;;;4.80;;
70829;SDS011;58451;51.550;7.208;2022-10-22T07:18:02;10.80;;;4.50;;
70829;SDS011;58451;51.550;7.208;2022-10-22T07:19:35;12.80;;;3.90;;
70829;SDS011;58451;51.550;7.208;2022-10-22T07:21:09;10.00;;;4.20;;
70829;SDS011;58451;51.550;7.208;2022-10-22T07:22:42;10.40;;;3.70;;
70829;SDS011;58451;51.550;7.208;2022-10-22T07:24:14;11.90;;;3.80;;
70829;SDS011;58451;51.550;7.208;2022-10-22T07:25:46;7.50;;;3.60;;
70829;SDS011;58451;51.550;7.208;2022-10-22T07:27:18;10.10;;;3.60;;
70829;SDS011;58451;51.550;7.208;2022-10-22T07:28:50;7.20;;;3.20;;
70829;SDS011;58451;51.550;7.208;2022-10-22T07:30:22;6.50;;;2.90;;
70829;SDS011;58451;51.550;7.208;2022-10-22T07:31:54;11.30;;;3.30;;
70829;SDS011;58451;51.550;7.208;2022-10-22T07:33:26;8.90;;;3.60;;
70829;SDS011;58451;51.550;7.208;2022-10-22T07:34:58;9.40;;;3.10;;
70829;SDS011;58451;51.550;7.208;2022-10-22T07:36:30;9.10;;;3.10;;
70829;SDS011;58451;51.550;7.208;2022-10-22T07:38:02;9.00;;;3.10;;
70829;SDS011;58451;51.550;7.208;2022-10-22T07:39:34;7.60;;;2.90;;
70829;SDS011;58451;51.550;7.208;2022-10-22T07:41:05;8.80;;;2.60;;
70829;SDS011;58451;51.550;7.208;2022-10-22T07:42:37;9.90;;;2.40;;
70829;SDS011;58451;51.550;7.208;2022-10-22T07:44:09;7.40;;;2.30;;
70829;SDS011;58451;51.550;7.208;2022-10-22T07:45:41;6.60;;;2.50;;
70829;SDS011;58451;51.550;7.208;2022-10-22T07:47:12;10.90;;;2.60;;
70829;SDS011;58451;51.550;7.208;2022-10-22T07:48:44;10.50;;;3.00;;
70829;SDS011;58451;51.550;7.208;2022-10-22T07:50:17;8.80;;;2.30;;
70829;SDS011;58451;51.550;7.208;2022-10-22T07:51:49;7.90;;;2.60;;
70829;SDS011;58451;51.550;7.208;2022-10-22T07:53:21;7.50;;;2.30;;
70829;SDS011;58451;51.550;7.208;2022-10-22T07:54:53;6.50;;;2.10;;
70829;SDS011;58451;51.550;7.208;2022-10-22T07:56:25;6.10;;;1.70;;
70829;SDS011;58451;51.550;7.208;2022-10-22T07:57:56;9.80;;;2.30;;
70829;SDS011;58451;51.550;7.208;2022-10-22T07:59:28;11.60;;;2.30;;
70829;SDS011;58451;51.550;7.208;2022-10-22T08:01:06;7.60;;;2.20;;
70829;SDS011;58451;51.550;7.208;2022-10-22T08:02:38;8.10;;;1.80;;
70829;SDS011;58451;51.550;7.208;2022-10-22T08:04:10;9.00;;;2.00;;
70829;SDS011;58451;51.550;7.208;2022-10-22T08:05:42;7.50;;;2.00;;
70829;SDS011;58451;51.550;7.208;2022-10-22T08:07:15;8.20;;;1.70;;
70829;SDS011;58451;51.550;7.208;2022-10-22T08:10:14;6.20;;;2.00;;
70829;SDS011;58451;51.550;7.208;2022-10-22T08:11:46;7.20;;;2.30;;
70829;SDS011;58451;51.550;7.208;2022-10-22T08:13:18;10.00;;;2.20;;
70829;SDS011;58451;51.550;7.208;2022-10-22T08:14:50;7.80;;;1.80;;
70829;SDS011;58451;51.550;7.208;2022-10-22T08:16:22;6.40;;;1.80;;
70829;SDS011;58451;51.550;7.208;2022-10-22T08:17:54;7.70;;;1.60;;
70829;SDS011;58451;51.550;7.208;2022-10-22T08:19:25;6.70;;;1.80;;
70829;SDS011;58451;51.550;7.208;2022-10-22T08:20:59;7.10;;;1.70;;
70829;SDS011;58451;51.550;7.208;2022-10-22T08:22:31;5.90;;;1.70;;
70829;SDS011;58451;51.550;7.208;2022-10-22T08:24:03;6.10;;;1.70;;
70829;SDS011;58451;51.550;7.208;2022-10-22T08:25:35;6.00;;;1.50;;
70829;SDS011;58451;51.550;7.208;2022-10-22T08:27:06;9.30;;;1.60;;
70829;SDS011;58451;51.550;7.208;2022-10-22T08:28:38;7.00;;;1.80;;
70829;SDS011;58451;51.550;7.208;2022-10-22T08:30:11;7.10;;;1.40;;
70829;SDS011;58451;51.550;7.208;2022-10-22T08:31:43;4.50;;;1.40;;
70829;SDS011;58451;51.550;7.208;2022-10-22T08:33:15;6.90;;;1.80;;
70829;SDS011;58451;51.550;7.208;2022-10-22T08:34:47;7.10;;;1.50;;
70829;SDS011;58451;51.550;7.208;2022-10-22T08:36:20;5.20;;;1.40;;
70829;SDS011;58451;51.550;7.208;2022-10-22T08:37:51;6.50;;;1.30;;
70829;SDS011;58451;51.550;7.208;2022-10-22T08:39:23;7.20;;;1.60;;
70829;SDS011;58451;51.550;7.208;2022-10-22T08:41:02;6.20;;;1.20;;
70829;SDS011;58451;51.550;7.208;2022-10-22T08:46:51;4.10;;;1.30;;
70829;SDS011;58451;51.550;7.208;2022-10-22T08:48:53;5.90;;;1.20;;
70829;SDS011;58451;51.550;7.208;2022-10-22T08:50:34;6.10;;;1.10;;
70829;SDS011;58451;51.550;7.208;2022-10-22T08:52:15;8.00;;;2.10;;
